LFBU

Angoulême-Brie-Champniers Airport

Angoulême/Brie/Champniers, France
TAF AMD LFBU 221142Z 2212/2312 18010KT 9999 OVC010 TEMPO 2212/2215 4000 -RA OVC005 BECMG 2215/2217 30008KT 9999 SCT020 PROB40 2218/2220 3000 BR TEMPO 2221/2312 4000 -RA BKN010
Issued Valid From Valid To
Jan-22 @ 11:42 UTC
(5 hours ago)
Jan-22 @ 12:00 UTC
(5 hours ago)
Jan-23 @ 12:00 UTC
(in 19 hours)
Expired Click to View Jan-22 @ 12:00 to Jan-22 @ 15:00
TAF AMD LFBU 221142Z 2212/2312 18010KT 9999 OVC010
Wind Visibility Clouds
180° at 10 knots 10,000+ meters
  • Overcast at 1,000' AGL
Expired Click to View Jan-22 @ 12:00 to Jan-22 @ 15:00
TEMPO 2212/2215 4000 -RA OVC005
Visibility Clouds Conditions
4,007 meters
  • Overcast at 500' AGL
  • Light Rain
Becoming Jan-22 @ 15:00 to Jan-23 @ 12:00
BECMG 2215/2217 30008KT 9999 SCT020
Wind Visibility Clouds
300° at 8 knots 10,000+ meters
  • Scattered at 2,000' AGL
Probable  (Probability 40%) Jan-22 @ 18:00 to Jan-22 @ 20:00
PROB40 2218/2220 3000 BR
Visibility Conditions
2,993 meters
  • Mist
Temporary Jan-22 @ 21:00 to Jan-23 @ 12:00
TEMPO 2221/2312 4000 -RA BKN010
Visibility Clouds Conditions
4,007 meters
  • Broken at 1,000' AGL
  • Light Rain
TAF AMD LFBU 221142Z 2212/2312 18010KT 9999 OVC010 TEMPO 2212/2215 4000 -RA OVC005 BECMG 2215/2217 30008KT 9999 SCT020 PROB40 2218/2220 3000 BR TEMPO 2221/2312 4000 -RA BKN010
Issued Jan-22 @ 11:42 UTC
(5 hours ago)
Valid From Jan-22 @ 12:00 UTC
(5 hours ago)
Valid To Jan-23 @ 12:00 UTC
(in 19 hours)
Jan-22 @ 12:00 - Jan-22 @ 15:00
Wind Visibility
180° at 10 knots 10,000+ meters
Clouds
  • Overcast at 1,000' AGL
Jan-22 @ 12:00 - Jan-22 @ 15:00
Clouds
  • Overcast at 500' AGL
Conditions
  • Light Rain
Becoming Jan-22 @ 15:00 - Jan-23 @ 12:00
Wind Visibility
300° at 8 knots 10,000+ meters
Clouds
  • Scattered at 2,000' AGL
Probability 40% Probable Jan-22 @ 18:00 - Jan-22 @ 20:00
Conditions
  • Mist
Temporary Jan-22 @ 21:00 - Jan-23 @ 12:00
Clouds
  • Broken at 1,000' AGL
Conditions
  • Light Rain